Time;durP1;ratioP1;P1;durP2;ratioP2;P2;SDS_P1;SDS_P2;PMS_P1;PMS_P2;Temp;Humidity;BMP_temperature;BMP_pressure;BME280_temperature;BME280_humidity;BME280_pressure;Samples;Min_cycle;Max_cycle;Signal;HPM_P1;HPM_P2
2022/08/28 00:02:24;;;;;;;2.47;1.03;;;;;;;;;;5079178;28;20035;-68
2022/08/28 00:04:51;;;;;;;2.97;0.90;;;;;;;;;;5086316;28;20015;-68
2022/08/28 00:07:18;;;;;;;4.17;1.20;;;;;;;;;;5091433;28;20123;-68
2022/08/28 00:09:44;;;;;;;1.30;0.73;;;;;;;;;;5091397;28;20042;-68
2022/08/28 00:12:11;;;;;;;1.00;0.60;;;;;;;;;;5091288;28;20024;-68
2022/08/28 00:14:38;;;;;;;2.13;1.00;;;;;;;;;;5091015;28;20118;-68
2022/08/28 00:17:05;;;;;;;3.20;1.27;;;;;;;;;;5086004;28;20059;-68
2022/08/28 00:19:33;;;;;;;1.53;0.93;;;;;;;;;;5088861;28;20077;-68
2022/08/28 00:22:00;;;;;;;3.17;1.30;;;;;;;;;;5086086;28;20032;-68
2022/08/28 00:24:27;;;;;;;5.33;1.23;;;;;;;;;;5085983;28;20028;-68
2022/08/28 00:29:40;;;;;;;1.97;1.10;;;;;;;;;;5108814;28;20493;-68
2022/08/28 00:32:07;;;;;;;2.20;1.40;;;;;;;;;;5092708;28;20027;-68
2022/08/28 00:34:34;;;;;;;1.93;1.20;;;;;;;;;;5111400;28;20032;-68
2022/08/28 00:37:01;;;;;;;1.37;0.87;;;;;;;;;;5111156;28;20030;-68
2022/08/28 00:39:28;;;;;;;2.13;1.20;;;;;;;;;;5091746;28;20087;-68
2022/08/28 00:41:54;;;;;;;1.40;0.97;;;;;;;;;;5066808;28;20090;-68
2022/08/28 00:44:23;;;;;;;4.13;0.90;;;;;;;;;;5087644;28;20696;-67
2022/08/28 00:46:52;;;;;;;4.60;1.40;;;;;;;;;;5095029;28;20028;-67
2022/08/28 00:49:22;;;;;;;2.10;0.93;;;;;;;;;;5091301;28;20039;-67
2022/08/28 00:52:06;;;;;;;1.67;1.27;;;;;;;;;;5095691;28;20020;-67
2022/08/28 00:54:35;;;;;;;1.40;0.85;;;;;;;;;;5095791;28;20028;-67
2022/08/28 00:57:07;;;;;;;0.93;0.73;;;;;;;;;;5088335;28;20032;-67
2022/08/28 00:59:35;;;;;;;3.43;1.13;;;;;;;;;;5110936;28;20031;-67
2022/08/28 01:02:02;;;;;;;2.80;1.10;;;;;;;;;;5112318;28;20073;-68
2022/08/28 01:04:31;;;;;;;4.67;1.40;;;;;;;;;;5089762;28;20078;-67
2022/08/28 01:06:59;;;;;;;1.27;0.87;;;;;;;;;;5071449;28;20397;-68
2022/08/28 01:09:27;;;;;;;1.43;0.80;;;;;;;;;;5091159;28;20072;-67
2022/08/28 01:11:56;;;;;;;2.13;1.40;;;;;;;;;;5090220;28;20024;-68
2022/08/28 01:14:23;;;;;;;1.93;1.20;;;;;;;;;;5095174;28;20095;-67
2022/08/28 01:16:55;;;;;;;1.53;0.87;;;;;;;;;;5095668;28;20031;-67
2022/08/28 01:19:31;;;;;;;1.07;0.80;;;;;;;;;;5095148;28;20462;-67
2022/08/28 01:22:04;;;;;;;1.87;1.40;;;;;;;;;;5095138;28;20486;-67
2022/08/28 01:24:31;;;;;;;5.80;1.80;;;;;;;;;;5092716;28;20076;-67
2022/08/28 01:26:58;;;;;;;1.73;1.20;;;;;;;;;;5090089;28;20024;-67
2022/08/28 01:29:27;;;;;;;2.60;1.40;;;;;;;;;;5089845;28;20036;-67
2022/08/28 01:31:54;;;;;;;15.47;1.57;;;;;;;;;;5101097;28;20039;-67
2022/08/28 01:34:21;;;;;;;2.60;1.23;;;;;;;;;;5111610;28;20030;-67
2022/08/28 01:36:47;;;;;;;2.57;1.73;;;;;;;;;;5107777;28;20028;-67
2022/08/28 01:39:16;;;;;;;5.47;1.87;;;;;;;;;;5094663;28;20383;-67
2022/08/28 01:41:45;;;;;;;2.17;1.50;;;;;;;;;;5094644;28;20020;-67
2022/08/28 01:44:12;;;;;;;2.97;1.90;;;;;;;;;;5094800;28;20024;-67
2022/08/28 01:46:41;;;;;;;3.63;1.77;;;;;;;;;;5092929;28;20035;-67
2022/08/28 01:49:08;;;;;;;2.40;1.37;;;;;;;;;;5088957;28;20162;-68
2022/08/28 01:51:35;;;;;;;2.13;1.33;;;;;;;;;;5089482;28;20020;-68
2022/08/28 01:54:02;;;;;;;4.00;1.93;;;;;;;;;;5090384;28;20386;-67
2022/08/28 01:56:28;;;;;;;3.50;2.13;;;;;;;;;;5096566;28;20034;-67
2022/08/28 01:58:55;;;;;;;3.73;2.23;;;;;;;;;;5093675;28;20024;-67
2022/08/28 02:01:22;;;;;;;2.93;1.70;;;;;;;;;;5106973;28;20487;-67
2022/08/28 02:03:51;;;;;;;3.33;1.73;;;;;;;;;;5113195;28;20027;-67
2022/08/28 02:06:18;;;;;;;2.97;2.07;;;;;;;;;;5114773;28;20026;-67
2022/08/28 02:08:45;;;;;;;3.63;1.97;;;;;;;;;;5103755;28;20093;-68
2022/08/28 02:11:12;;;;;;;4.87;2.13;;;;;;;;;;5069055;28;20017;-67
2022/08/28 02:13:39;;;;;;;2.53;1.97;;;;;;;;;;5070042;28;20027;-67
2022/08/28 02:16:08;;;;;;;2.90;2.20;;;;;;;;;;5089282;28;20024;-68
2022/08/28 02:18:35;;;;;;;3.13;2.23;;;;;;;;;;5086318;28;20024;-68
2022/08/28 02:21:02;;;;;;;2.93;2.37;;;;;;;;;;5093486;28;20032;-68
2022/08/28 02:23:29;;;;;;;4.00;2.10;;;;;;;;;;5074717;28;20085;-68
2022/08/28 02:25:55;;;;;;;3.63;2.17;;;;;;;;;;5093577;28;20020;-68
2022/08/28 02:28:22;;;;;;;7.27;3.13;;;;;;;;;;5089171;28;20028;-68
2022/08/28 02:30:49;;;;;;;3.47;2.43;;;;;;;;;;5092974;28;20031;-68
2022/08/28 02:33:15;;;;;;;3.50;2.03;;;;;;;;;;5087976;28;20016;-68
2022/08/28 02:35:42;;;;;;;3.63;2.33;;;;;;;;;;5087969;28;20377;-67
2022/08/28 02:38:09;;;;;;;2.70;2.20;;;;;;;;;;5087905;28;20076;-68
2022/08/28 02:40:36;;;;;;;2.63;1.90;;;;;;;;;;5090583;28;20027;-68
2022/08/28 02:43:03;;;;;;;4.90;3.00;;;;;;;;;;5097364;28;20032;-68
2022/08/28 02:45:30;;;;;;;4.60;2.13;;;;;;;;;;5112549;28;20028;-68
2022/08/28 02:47:56;;;;;;;7.90;2.70;;;;;;;;;;5110619;28;20119;-68
2022/08/28 02:50:23;;;;;;;2.50;2.17;;;;;;;;;;5113977;28;20081;-68
2022/08/28 02:52:51;;;;;;;2.53;1.80;;;;;;;;;;5106186;28;20530;-68
2022/08/28 02:55:18;;;;;;;4.30;2.80;;;;;;;;;;5089906;28;20039;-67
2022/08/28 02:57:46;;;;;;;3.80;2.13;;;;;;;;;;5088266;28;20055;-68
2022/08/28 03:00:18;;;;;;;4.30;2.57;;;;;;;;;;5087976;28;20020;-67
2022/08/28 03:02:45;;;;;;;3.17;2.17;;;;;;;;;;5088612;28;20028;-68
2022/08/28 03:05:13;;;;;;;3.87;2.00;;;;;;;;;;5078054;28;20039;-67
2022/08/28 03:07:39;;;;;;;5.10;2.03;;;;;;;;;;5073563;28;20029;-67
2022/08/28 03:10:07;;;;;;;2.73;1.97;;;;;;;;;;5100641;28;20028;-68
2022/08/28 03:12:34;;;;;;;3.63;1.93;;;;;;;;;;5102029;28;20032;-67
2022/08/28 03:15:00;;;;;;;2.00;1.37;;;;;;;;;;5114061;28;20096;-67
2022/08/28 03:17:27;;;;;;;3.67;1.70;;;;;;;;;;5107120;28;20384;-67
2022/08/28 03:19:54;;;;;;;3.60;1.97;;;;;;;;;;5088832;28;20073;-68
2022/08/28 03:23:24;;;;;;;2.30;1.67;;;;;;;;;;5100705;28;20390;-68
2022/08/28 03:25:08;;;;;;;3.57;2.53;;;;;;;;;;5088230;28;20036;-68
2022/08/28 03:27:34;;;;;;;2.93;1.80;;;;;;;;;;5094039;28;20081;-68
2022/08/28 03:30:01;;;;;;;2.67;1.40;;;;;;;;;;5113912;28;20051;-67
2022/08/28 03:32:30;;;;;;;3.20;2.00;;;;;;;;;;5112208;28;20028;-67
2022/08/28 03:34:57;;;;;;;3.10;1.77;;;;;;;;;;5094825;28;20036;-67
2022/08/28 03:37:23;;;;;;;3.73;2.40;;;;;;;;;;5111888;28;20032;-67
2022/08/28 03:39:50;;;;;;;3.27;2.17;;;;;;;;;;5109394;28;20479;-68
2022/08/28 03:42:17;;;;;;;4.20;2.73;;;;;;;;;;5090946;28;20042;-67
2022/08/28 03:44:43;;;;;;;2.17;1.67;;;;;;;;;;5089143;28;20031;-68
2022/08/28 03:47:11;;;;;;;1.20;1.10;;;;;;;;;;5105940;28;20028;-68
2022/08/28 03:49:38;;;;;;;3.80;1.77;;;;;;;;;;5098400;28;20459;-67
2022/08/28 03:52:07;;;;;;;1.80;1.43;;;;;;;;;;5093083;28;20040;-67
2022/08/28 03:54:34;;;;;;;3.37;1.77;;;;;;;;;;5105156;28;20016;-68
2022/08/28 03:57:02;;;;;;;4.07;1.70;;;;;;;;;;5101281;28;20031;-67
2022/08/28 03:59:29;;;;;;;1.83;1.33;;;;;;;;;;5101772;28;20037;-68
2022/08/28 04:01:55;;;;;;;3.80;2.20;;;;;;;;;;5090238;28;20479;-68
2022/08/28 04:04:22;;;;;;;6.90;1.80;;;;;;;;;;5108126;28;20032;-68
2022/08/28 04:06:49;;;;;;;1.40;1.30;;;;;;;;;;5102071;28;20024;-68
2022/08/28 04:09:15;;;;;;;2.13;1.60;;;;;;;;;;5106409;28;20032;-67
2022/08/28 04:11:42;;;;;;;2.20;1.50;;;;;;;;;;5111277;28;20044;-68
2022/08/28 04:14:10;;;;;;;2.50;1.83;;;;;;;;;;5110973;28;20400;-68
2022/08/28 04:16:37;;;;;;;4.73;2.70;;;;;;;;;;5092871;28;20032;-68
2022/08/28 04:19:04;;;;;;;4.27;2.90;;;;;;;;;;5111562;28;20020;-68
2022/08/28 04:21:30;;;;;;;2.83;1.97;;;;;;;;;;5092626;28;20485;-68
2022/08/28 04:23:57;;;;;;;2.17;1.50;;;;;;;;;;5101054;28;20023;-68
2022/08/28 04:26:25;;;;;;;3.10;1.80;;;;;;;;;;5109260;28;20032;-67
2022/08/28 04:28:51;;;;;;;3.53;1.67;;;;;;;;;;5112333;28;20754;-67
2022/08/28 04:31:18;;;;;;;4.03;2.47;;;;;;;;;;5093765;28;20853;-67
2022/08/28 04:33:45;;;;;;;1.90;1.43;;;;;;;;;;5098607;28;20023;-68
2022/08/28 04:36:13;;;;;;;2.40;1.30;;;;;;;;;;5100166;28;20024;-67
2022/08/28 04:38:40;;;;;;;3.83;1.60;;;;;;;;;;5096811;28;20443;-67
2022/08/28 04:41:08;;;;;;;3.93;1.33;;;;;;;;;;5112212;28;20102;-67
2022/08/28 04:43:36;;;;;;;1.40;1.10;;;;;;;;;;5112024;28;20024;-68
2022/08/28 04:46:06;;;;;;;2.40;1.33;;;;;;;;;;5097855;28;20028;-68
2022/08/28 04:48:33;;;;;;;1.00;0.80;;;;;;;;;;5097958;28;20801;-68
2022/08/28 04:51:00;;;;;;;1.87;0.90;;;;;;;;;;5091529;28;20032;-68
2022/08/28 04:53:27;;;;;;;1.30;0.90;;;;;;;;;;5093967;28;20780;-67
2022/08/28 04:55:57;;;;;;;3.83;1.97;;;;;;;;;;5090497;28;20112;-68
2022/08/28 04:58:24;;;;;;;5.60;2.73;;;;;;;;;;5094098;28;20118;-67
2022/08/28 05:00:52;;;;;;;3.10;2.23;;;;;;;;;;5095074;28;20062;-67
2022/08/28 05:03:18;;;;;;;11.90;7.63;;;;;;;;;;5093623;28;20043;-68
2022/08/28 05:05:47;;;;;;;11.17;9.50;;;;;;;;;;5092776;28;20035;-68
2022/08/28 05:08:14;;;;;;;10.10;8.80;;;;;;;;;;5091008;28;20553;-68
2022/08/28 05:10:41;;;;;;;13.93;10.00;;;;;;;;;;5089775;28;20488;-68
2022/08/28 05:13:09;;;;;;;22.53;13.97;;;;;;;;;;5088577;28;20074;-68
2022/08/28 05:15:43;;;;;;;14.47;10.40;;;;;;;;;;5089732;28;20124;-68
2022/08/28 05:18:10;;;;;;;8.80;7.97;;;;;;;;;;5091742;28;20064;-67
2022/08/28 05:20:38;;;;;;;13.70;11.33;;;;;;;;;;5095347;28;20043;-67
2022/08/28 05:23:07;;;;;;;16.63;14.87;;;;;;;;;;5106351;28;20398;-67
2022/08/28 05:25:38;;;;;;;11.10;8.73;;;;;;;;;;5115628;28;20099;-67
2022/08/28 05:28:05;;;;;;;11.00;9.03;;;;;;;;;;5115254;28;20036;-68
2022/08/28 05:30:32;;;;;;;8.63;7.73;;;;;;;;;;5111637;28;20028;-67
2022/08/28 05:32:58;;;;;;;15.70;11.87;;;;;;;;;;5109796;28;20020;-67
2022/08/28 05:35:26;;;;;;;18.70;8.93;;;;;;;;;;5093957;28;20039;-68
2022/08/28 05:37:53;;;;;;;9.73;8.80;;;;;;;;;;5089773;28;20028;-68
2022/08/28 05:40:23;;;;;;;12.20;8.97;;;;;;;;;;5091093;28;20024;-68
2022/08/28 05:42:50;;;;;;;10.63;7.67;;;;;;;;;;5094916;28;20387;-68
2022/08/28 05:45:16;;;;;;;7.67;5.67;;;;;;;;;;5094915;28;20031;-67
2022/08/28 05:47:43;;;;;;;6.23;5.63;;;;;;;;;;5113025;28;20463;-68
2022/08/28 05:50:14;;;;;;;9.17;5.17;;;;;;;;;;5115203;28;20034;-67
2022/08/28 05:52:41;;;;;;;5.60;4.83;;;;;;;;;;5113160;28;20024;-68
2022/08/28 05:55:09;;;;;;;4.43;3.93;;;;;;;;;;5109686;28;20045;-67
2022/08/28 05:57:36;;;;;;;6.40;3.67;;;;;;;;;;5105578;28;20372;-67
2022/08/28 06:00:04;;;;;;;8.23;6.20;;;;;;;;;;5089089;28;20020;-67
2022/08/28 06:02:31;;;;;;;7.57;5.13;;;;;;;;;;5089934;28;20024;-67
2022/08/28 06:04:58;;;;;;;7.27;5.33;;;;;;;;;;5094882;28;20445;-67
2022/08/28 06:07:25;;;;;;;6.37;3.77;;;;;;;;;;5094163;28;20032;-67
2022/08/28 06:09:51;;;;;;;5.60;3.50;;;;;;;;;;5099839;28;20032;-67
2022/08/28 06:12:18;;;;;;;3.53;2.97;;;;;;;;;;5114841;28;20088;-67
2022/08/28 06:14:45;;;;;;;4.03;3.23;;;;;;;;;;5113258;28;20020;-67
2022/08/28 06:17:11;;;;;;;2.97;2.27;;;;;;;;;;5109373;28;20054;-66
2022/08/28 06:19:38;;;;;;;3.30;2.63;;;;;;;;;;5108863;28;20023;-67
2022/08/28 06:22:05;;;;;;;2.63;2.07;;;;;;;;;;5099060;28;20395;-67
2022/08/28 06:24:32;;;;;;;7.97;3.37;;;;;;;;;;5089212;28;20024;-67
2022/08/28 06:26:59;;;;;;;3.37;2.33;;;;;;;;;;5094195;28;20070;-66
2022/08/28 06:29:26;;;;;;;4.63;3.13;;;;;;;;;;5094048;28;20028;-67
2022/08/28 06:31:57;;;;;;;4.27;2.53;;;;;;;;;;5093845;28;20017;-66
2022/08/28 06:34:25;;;;;;;4.00;3.07;;;;;;;;;;5106285;28;20059;-67
2022/08/28 06:36:52;;;;;;;2.87;1.97;;;;;;;;;;5113112;28;20084;-67
2022/08/28 06:39:19;;;;;;;6.20;2.50;;;;;;;;;;5108907;28;20482;-67
2022/08/28 06:41:46;;;;;;;4.17;3.00;;;;;;;;;;5108890;28;20058;-67
2022/08/28 06:44:18;;;;;;;2.87;2.40;;;;;;;;;;5108827;28;20023;-67
2022/08/28 06:46:45;;;;;;;6.97;3.30;;;;;;;;;;5095156;28;20089;-67
2022/08/28 06:49:12;;;;;;;6.80;2.87;;;;;;;;;;5093450;28;20034;-66
2022/08/28 06:51:39;;;;;;;2.90;2.33;;;;;;;;;;5093392;28;20028;-67
2022/08/28 06:54:05;;;;;;;2.57;2.27;;;;;;;;;;5093371;28;20058;-67
2022/08/28 06:56:32;;;;;;;1.93;1.60;;;;;;;;;;5093676;28;20024;-67
2022/08/28 06:58:59;;;;;;;2.57;2.33;;;;;;;;;;5109531;28;20038;-67
2022/08/28 07:01:28;;;;;;;3.47;2.43;;;;;;;;;;5108404;28;20219;-67
2022/08/28 07:03:56;;;;;;;2.13;1.90;;;;;;;;;;5108342;28;20099;-67
2022/08/28 07:06:23;;;;;;;5.47;2.17;;;;;;;;;;5108119;28;20052;-67
2022/08/28 07:08:50;;;;;;;7.30;2.47;;;;;;;;;;5107801;28;20031;-68
2022/08/28 07:11:21;;;;;;;4.17;2.40;;;;;;;;;;5095849;28;20016;-68
2022/08/28 07:13:48;;;;;;;5.83;1.90;;;;;;;;;;5093251;28;20421;-68
2022/08/28 07:16:17;;;;;;;2.60;1.67;;;;;;;;;;5093200;28;20028;-68
2022/08/28 07:18:44;;;;;;;7.20;1.63;;;;;;;;;;5093100;28;20020;-69
2022/08/28 07:21:10;;;;;;;5.50;2.17;;;;;;;;;;5093226;28;20133;-68
2022/08/28 07:23:38;;;;;;;3.13;1.73;;;;;;;;;;5107745;28;20059;-68
2022/08/28 07:26:07;;;;;;;1.57;1.17;;;;;;;;;;5107975;28;20543;-69
2022/08/28 07:28:33;;;;;;;3.40;1.43;;;;;;;;;;5107819;28;20039;-67
2022/08/28 07:31:05;;;;;;;6.70;1.13;;;;;;;;;;5107834;28;20107;-66
2022/08/28 07:33:32;;;;;;;0.73;0.70;;;;;;;;;;5111536;28;20076;-67
2022/08/28 07:36:00;;;;;;;0.77;0.60;;;;;;;;;;5092863;28;20024;-67
2022/08/28 07:38:27;;;;;;;0.50;0.37;;;;;;;;;;5092890;28;20344;-67
2022/08/28 07:40:54;;;;;;;0.57;0.43;;;;;;;;;;5092398;28;20031;-67
2022/08/28 07:46:07;;;;;;;0.40;0.40;;;;;;;;;;5090365;28;20450;-67
2022/08/28 07:48:34;;;;;;;0.63;0.40;;;;;;;;;;5107527;28;20485;-67
2022/08/28 07:51:02;;;;;;;0.67;0.50;;;;;;;;;;5107478;28;20117;-67
2022/08/28 07:53:28;;;;;;;0.33;0.33;;;;;;;;;;5107105;28;20032;-67
2022/08/28 07:55:55;;;;;;;0.60;0.50;;;;;;;;;;5112505;28;20029;-67
2022/08/28 07:58:24;;;;;;;2.30;0.30;;;;;;;;;;5107101;28;20038;-67
2022/08/28 08:00:52;;;;;;;0.87;0.60;;;;;;;;;;5092553;28;20078;-67
2022/08/28 08:03:19;;;;;;;0.33;0.30;;;;;;;;;;5092523;28;20036;-68
2022/08/28 08:06:02;;;;;;;0.80;0.40;;;;;;;;;;5092511;28;20028;-67
2022/08/28 08:08:29;;;;;;;1.03;0.50;;;;;;;;;;5086874;28;20024;-68
2022/08/28 08:10:57;;;;;;;0.23;0.23;;;;;;;;;;5098589;28;20023;-68
2022/08/28 08:13:24;;;;;;;0.33;0.33;;;;;;;;;;5107225;28;20032;-68
2022/08/28 08:15:50;;;;;;;1.17;0.43;;;;;;;;;;5107419;28;20505;-68
2022/08/28 08:18:17;;;;;;;2.53;0.50;;;;;;;;;;5110572;28;20008;-68
2022/08/28 08:20:44;;;;;;;0.60;0.17;;;;;;;;;;5112315;28;20399;-67
2022/08/28 08:23:10;;;;;;;0.00;0.00;;;;;;;;;;5112456;28;20555;-67
2022/08/28 08:25:37;;;;;;;0.10;0.10;;;;;;;;;;5112531;28;20020;-67
2022/08/28 08:28:04;;;;;;;0.20;0.20;;;;;;;;;;5111180;28;20036;-67
2022/08/28 08:30:31;;;;;;;0.10;0.10;;;;;;;;;;5086651;28;20034;-68
2022/08/28 08:32:58;;;;;;;1.10;0.33;;;;;;;;;;5086843;28;20028;-67
2022/08/28 08:35:24;;;;;;;0.20;0.20;;;;;;;;;;5086667;28;20831;-67
2022/08/28 08:37:51;;;;;;;0.40;0.40;;;;;;;;;;5086855;28;20016;-67
2022/08/28 08:40:19;;;;;;;0.60;0.60;;;;;;;;;;5090968;28;20026;-67
2022/08/28 08:42:49;;;;;;;0.40;0.40;;;;;;;;;;5108516;28;20039;-67
2022/08/28 08:45:20;;;;;;;0.47;0.40;;;;;;;;;;5112456;28;20023;-67
2022/08/28 08:47:50;;;;;;;0.67;0.50;;;;;;;;;;5112165;28;20054;-67
2022/08/28 08:50:19;;;;;;;0.70;0.30;;;;;;;;;;5112247;28;20034;-68
2022/08/28 08:53:05;;;;;;;1.70;0.70;;;;;;;;;;5091533;28;20028;-68
2022/08/28 08:55:36;;;;;;;0.00;0.00;;;;;;;;;;5086750;28;20016;-67
2022/08/28 08:58:09;;;;;;;0.73;0.30;;;;;;;;;;5104709;28;20023;-67
2022/08/28 09:00:43;;;;;;;0.40;0.40;;;;;;;;;;5106730;28;20059;-67
2022/08/28 09:03:14;;;;;;;0.37;0.30;;;;;;;;;;5111972;28;20020;-68
2022/08/28 09:05:55;;;;;;;0.37;0.20;;;;;;;;;;5112131;28;20767;-68
2022/08/28 09:08:43;;;;;;;0.10;0.07;;;;;;;;;;5093259;28;20040;-67
2022/08/28 09:11:15;;;;;;;0.30;0.20;;;;;;;;;;5095226;28;20038;-68
2022/08/28 09:13:48;;;;;;;0.10;0.10;;;;;;;;;;5093298;28;20024;-68
2022/08/28 09:16:20;;;;;;;0.10;0.10;;;;;;;;;;5090108;28;20024;-67
2022/08/28 09:18:47;;;;;;;1.03;0.57;;;;;;;;;;5097460;28;20027;-67
2022/08/28 09:21:24;;;;;;;0.13;0.13;;;;;;;;;;5110318;28;20111;-67
2022/08/28 09:23:52;;;;;;;0.20;0.20;;;;;;;;;;5112268;28;20024;-67
2022/08/28 09:26:24;;;;;;;0.20;0.20;;;;;;;;;;5115848;28;20142;-67
2022/08/28 09:29:07;;;;;;;0.17;0.17;;;;;;;;;;5115620;28;20501;-68
2022/08/28 09:31:40;;;;;;;0.27;0.20;;;;;;;;;;5099273;28;20035;-68
2022/08/28 09:34:25;;;;;;;0.30;0.30;;;;;;;;;;5095330;28;20016;-68
2022/08/28 09:36:52;;;;;;;0.20;0.20;;;;;;;;;;5090886;28;20095;-68
2022/08/28 09:39:27;;;;;;;1.70;0.43;;;;;;;;;;5089700;28;20047;-68
2022/08/28 09:45:19;;;;;;;0.87;0.30;;;;;;;;;;5089588;28;20505;-68
2022/08/28 09:47:55;;;;;;;0.30;0.30;;;;;;;;;;4992862;28;20117;-68
2022/08/28 09:50:21;;;;;;;0.93;0.30;;;;;;;;;;5082686;28;20036;-67
2022/08/28 09:52:49;;;;;;;0.47;0.37;;;;;;;;;;5094796;28;20028;-68
2022/08/28 09:55:30;;;;;;;7.30;0.57;;;;;;;;;;5107258;28;20366;-68
2022/08/28 09:57:57;;;;;;;2.43;0.40;;;;;;;;;;5112846;28;20020;-68
2022/08/28 10:00:24;;;;;;;0.30;0.20;;;;;;;;;;5109515;28;20469;-68
2022/08/28 10:03:13;;;;;;;0.40;0.20;;;;;;;;;;5109732;28;20034;-68
2022/08/28 10:05:42;;;;;;;0.20;0.17;;;;;;;;;;5059695;28;20035;-68
2022/08/28 10:08:23;;;;;;;0.30;0.17;;;;;;;;;;5090589;28;20088;-68
2022/08/28 10:10:54;;;;;;;3.20;0.53;;;;;;;;;;5094457;28;20028;-68
2022/08/28 10:13:35;;;;;;;0.23;0.23;;;;;;;;;;5094271;28;20157;-68
2022/08/28 10:16:14;;;;;;;0.10;0.10;;;;;;;;;;5094348;28;20028;-68
2022/08/28 10:19:00;;;;;;;0.47;0.33;;;;;;;;;;5102548;28;20149;-68
2022/08/28 10:21:34;;;;;;;0.10;0.10;;;;;;;;;;5109961;28;20046;-68
2022/08/28 10:24:20;;;;;;;0.30;0.30;;;;;;;;;;5109181;28;20470;-68
2022/08/28 10:26:53;;;;;;;0.10;0.10;;;;;;;;;;5091984;28;20478;-68
2022/08/28 10:29:20;;;;;;;0.20;0.13;;;;;;;;;;5109008;28;20040;-68
2022/08/28 10:31:54;;;;;;;0.10;0.10;;;;;;;;;;5096922;28;20111;-68
2022/08/28 10:34:20;;;;;;;0.60;0.47;;;;;;;;;;5093958;28;20020;-68
2022/08/28 10:36:51;;;;;;;0.13;0.13;;;;;;;;;;5093617;28;20023;-68
2022/08/28 10:39:24;;;;;;;0.47;0.30;;;;;;;;;;5093941;28;20027;-68
2022/08/28 10:41:54;;;;;;;0.77;0.50;;;;;;;;;;5093780;28;20104;-68
2022/08/28 10:44:26;;;;;;;0.53;0.40;;;;;;;;;;5068118;28;20024;-68
2022/08/28 10:46:55;;;;;;;4.63;0.53;;;;;;;;;;5068044;28;20021;-68
2022/08/28 10:49:28;;;;;;;0.20;0.20;;;;;;;;;;5067551;28;20107;-68
2022/08/28 10:51:59;;;;;;;0.63;0.53;;;;;;;;;;5068069;28;20025;-68
2022/08/28 10:54:44;;;;;;;0.57;0.40;;;;;;;;;;5083455;28;20055;-68
2022/08/28 10:57:29;;;;;;;0.20;0.20;;;;;;;;;;5113886;28;20016;-68
2022/08/28 10:59:58;;;;;;;0.30;0.20;;;;;;;;;;5114029;28;20466;-68
2022/08/28 11:02:25;;;;;;;0.20;0.10;;;;;;;;;;5113841;28;20394;-68
2022/08/28 11:04:53;;;;;;;0.10;0.10;;;;;;;;;;5112213;28;20016;-68
2022/08/28 11:07:34;;;;;;;0.30;0.20;;;;;;;;;;5095500;28;20360;-68
2022/08/28 11:10:16;;;;;;;0.10;0.10;;;;;;;;;;5087794;28;20032;-68
2022/08/28 11:12:43;;;;;;;0.87;0.30;;;;;;;;;;5087897;28;20023;-68
2022/08/28 11:15:22;;;;;;;0.33;0.33;;;;;;;;;;5089546;28;20027;-68
2022/08/28 11:17:49;;;;;;;0.77;0.50;;;;;;;;;;5093791;28;20020;-68
2022/08/28 11:20:19;;;;;;;0.27;0.27;;;;;;;;;;5113412;28;20047;-68
2022/08/28 11:22:55;;;;;;;0.77;0.57;;;;;;;;;;5113235;28;20049;-68
2022/08/28 11:25:27;;;;;;;0.20;0.10;;;;;;;;;;5113080;28;20471;-68
2022/08/28 11:28:13;;;;;;;0.33;0.33;;;;;;;;;;5110333;28;20363;-68
2022/08/28 11:30:41;;;;;;;11.67;0.63;;;;;;;;;;5098647;28;20043;-68
2022/08/28 11:33:09;;;;;;;0.47;0.43;;;;;;;;;;5086737;28;20059;-68
2022/08/28 11:35:39;;;;;;;0.70;0.50;;;;;;;;;;5087336;28;20024;-68
2022/08/28 11:38:06;;;;;;;0.27;0.27;;;;;;;;;;5090457;28;20463;-68
2022/08/28 11:40:33;;;;;;;0.80;0.73;;;;;;;;;;5092604;28;20025;-68
2022/08/28 11:43:14;;;;;;;0.20;0.20;;;;;;;;;;5103348;28;20030;-68
2022/08/28 11:45:44;;;;;;;0.40;0.40;;;;;;;;;;5113007;28;20099;-68
2022/08/28 11:48:23;;;;;;;0.20;0.20;;;;;;;;;;5113024;28;20462;-68
2022/08/28 11:51:05;;;;;;;0.73;0.70;;;;;;;;;;5108395;28;20035;-68
2022/08/28 11:53:52;;;;;;;1.50;0.87;;;;;;;;;;5107414;28;20028;-68
2022/08/28 11:56:25;;;;;;;1.07;0.73;;;;;;;;;;5069792;28;20054;-68
2022/08/28 11:58:56;;;;;;;0.53;0.40;;;;;;;;;;5087003;28;20604;-68
2022/08/28 12:01:28;;;;;;;0.30;0.20;;;;;;;;;;5092634;28;20051;-68
2022/08/28 12:03:55;;;;;;;0.30;0.30;;;;;;;;;;5092541;28;20024;-68
2022/08/28 12:07:00;;;;;;;0.40;0.30;;;;;;;;;;5100011;28;20032;-68
2022/08/28 12:09:26;;;;;;;0.40;0.23;;;;;;;;;;5010314;28;20614;-68
2022/08/28 12:11:53;;;;;;;0.97;0.70;;;;;;;;;;5008525;28;20124;-68
2022/08/28 12:14:29;;;;;;;0.20;0.20;;;;;;;;;;5053874;28;20494;-68
2022/08/28 12:16:58;;;;;;;0.73;0.57;;;;;;;;;;5107328;28;20032;-68
2022/08/28 12:19:46;;;;;;;0.30;0.30;;;;;;;;;;5089205;28;20030;-68
2022/08/28 12:22:15;;;;;;;0.20;0.20;;;;;;;;;;5089007;28;20020;-68
2022/08/28 12:25:07;;;;;;;8.73;0.50;;;;;;;;;;5092370;28;20467;-68
2022/08/28 12:27:37;;;;;;;0.27;0.27;;;;;;;;;;5087849;28;20036;-68
2022/08/28 12:30:04;;;;;;;0.30;0.30;;;;;;;;;;5098709;28;20099;-68
2022/08/28 12:32:37;;;;;;;0.20;0.20;;;;;;;;;;5072073;28;20031;-68
2022/08/28 12:35:07;;;;;;;1.07;0.70;;;;;;;;;;5068268;28;20024;-68
2022/08/28 12:37:34;;;;;;;0.43;0.40;;;;;;;;;;5048503;28;20761;-68
2022/08/28 12:40:19;;;;;;;1.40;0.53;;;;;;;;;;5066659;28;21347;-68
2022/08/28 12:42:45;;;;;;;;;;;;;;;;;;5097887;28;20106;-68
2022/08/28 12:45:16;;;;;;;0.60;0.30;;;;;;;;;;5114773;28;19953;-68
2022/08/28 12:47:43;;;;;;;0.30;0.30;;;;;;;;;;5116198;28;20019;-68
2022/08/28 12:50:19;;;;;;;0.57;0.43;;;;;;;;;;5116182;28;20106;-68
2022/08/28 12:52:50;;;;;;;0.17;0.17;;;;;;;;;;5116085;28;20066;-68
2022/08/28 12:55:18;;;;;;;0.20;0.20;;;;;;;;;;5075686;28;20106;-68
2022/08/28 12:57:45;;;;;;;0.40;0.40;;;;;;;;;;5071009;28;20115;-68
2022/08/28 13:00:15;;;;;;;0.10;0.10;;;;;;;;;;5070389;28;20021;-68
2022/08/28 13:02:42;;;;;;;0.30;0.23;;;;;;;;;;5069988;28;20025;-68
2022/08/28 13:05:10;;;;;;;1.23;0.67;;;;;;;;;;5071812;28;20046;-68
2022/08/28 13:07:45;;;;;;;0.17;0.17;;;;;;;;;;5114561;28;20084;-68
2022/08/28 13:10:29;;;;;;;0.28;0.25;;;;;;;;;;5115968;28;20028;-68
2022/08/28 13:13:05;;;;;;;3.35;0.70;;;;;;;;;;5115854;28;20420;-68
2022/08/28 13:15:44;;;;;;;0.40;0.40;;;;;;;;;;5115843;28;20073;-68
2022/08/28 13:18:30;;;;;;;1.00;0.90;;;;;;;;;;5103873;28;20111;-68
2022/08/28 13:21:11;;;;;;;2.60;1.93;;;;;;;;;;5089158;28;20028;-68
2022/08/28 13:23:37;;;;;;;2.90;1.60;;;;;;;;;;5090104;28;20043;-68
2022/08/28 13:26:05;;;;;;;3.40;2.63;;;;;;;;;;5090081;28;20031;-68
2022/08/28 13:28:36;;;;;;;2.47;2.07;;;;;;;;;;5090869;28;20387;-68
2022/08/28 13:31:03;;;;;;;0.93;0.87;;;;;;;;;;5113228;28;20076;-68
2022/08/28 13:33:30;;;;;;;1.67;1.37;;;;;;;;;;5115228;28;20024;-68
2022/08/28 13:35:57;;;;;;;1.83;1.53;;;;;;;;;;5115563;28;20024;-68
2022/08/28 13:38:25;;;;;;;3.37;1.20;;;;;;;;;;5115296;28;20031;-68
2022/08/28 13:40:56;;;;;;;2.77;1.70;;;;;;;;;;5114256;28;20096;-68
2022/08/28 13:43:24;;;;;;;1.17;0.90;;;;;;;;;;5090460;28;20745;-68
2022/08/28 13:45:51;;;;;;;1.47;1.00;;;;;;;;;;5089652;28;20021;-68
2022/08/28 13:48:20;;;;;;;2.07;1.60;;;;;;;;;;5089155;28;20115;-68
2022/08/28 13:50:48;;;;;;;2.00;1.50;;;;;;;;;;5090129;28;20020;-68
2022/08/28 13:53:17;;;;;;;1.10;1.00;;;;;;;;;;5094985;28;20020;-68
2022/08/28 13:55:44;;;;;;;1.50;1.27;;;;;;;;;;5113642;28;20098;-68
2022/08/28 13:58:12;;;;;;;1.10;1.00;;;;;;;;;;5114993;28;20019;-68
2022/08/28 14:00:41;;;;;;;1.63;1.17;;;;;;;;;;5115090;28;20019;-68
2022/08/28 14:05:53;;;;;;;1.85;1.20;;;;;;;;;;5069341;28;20048;-68
2022/08/28 14:08:20;;;;;;;6.97;2.70;;;;;;;;;;5102005;28;20028;-68
2022/08/28 14:10:47;;;;;;;2.37;1.37;;;;;;;;;;5109592;28;20022;-68
2022/08/28 14:13:14;;;;;;;1.03;0.90;;;;;;;;;;5110343;28;20016;-68
2022/08/28 14:15:41;;;;;;;3.17;1.80;;;;;;;;;;5114711;28;20442;-68
2022/08/28 14:18:08;;;;;;;2.00;1.40;;;;;;;;;;5098903;28;20036;-68
2022/08/28 14:20:38;;;;;;;1.07;0.97;;;;;;;;;;5093613;28;20479;-68
2022/08/28 14:23:04;;;;;;;1.37;1.13;;;;;;;;;;5102846;28;20477;-68
2022/08/28 14:25:31;;;;;;;2.20;1.60;;;;;;;;;;5095681;28;20103;-68
2022/08/28 14:27:58;;;;;;;2.70;1.40;;;;;;;;;;5109154;28;20027;-69
2022/08/28 14:30:25;;;;;;;2.23;1.60;;;;;;;;;;5093599;28;20050;-68
2022/08/28 14:32:51;;;;;;;2.93;1.50;;;;;;;;;;5100054;28;20076;-69
2022/08/28 14:35:18;;;;;;;5.03;1.50;;;;;;;;;;5095934;28;20027;-69
2022/08/28 14:37:45;;;;;;;1.57;1.13;;;;;;;;;;5111211;28;20493;-68
2022/08/28 14:40:12;;;;;;;1.67;0.97;;;;;;;;;;5101963;28;20042;-69
2022/08/28 14:42:40;;;;;;;1.03;0.93;;;;;;;;;;5093915;28;20092;-69
2022/08/28 14:45:07;;;;;;;1.57;1.10;;;;;;;;;;5094374;28;20017;-69
2022/08/28 14:47:34;;;;;;;1.27;0.90;;;;;;;;;;5092733;28;20032;-69
2022/08/28 14:50:01;;;;;;;1.23;0.60;;;;;;;;;;5088069;28;20468;-68
2022/08/28 14:52:28;;;;;;;3.70;0.73;;;;;;;;;;5092402;28;20034;-69
2022/08/28 14:54:55;;;;;;;1.27;0.57;;;;;;;;;;5108911;28;20034;-68
2022/08/28 14:57:21;;;;;;;0.40;0.23;;;;;;;;;;5091512;28;20455;-68
2022/08/28 14:59:48;;;;;;;0.50;0.40;;;;;;;;;;5101545;28;20027;-69
2022/08/28 15:02:15;;;;;;;3.33;0.70;;;;;;;;;;5093752;28;20073;-68
2022/08/28 15:04:41;;;;;;;0.40;0.40;;;;;;;;;;5092806;28;20020;-69
2022/08/28 15:07:09;;;;;;;0.60;0.60;;;;;;;;;;5093177;28;20031;-69
2022/08/28 15:09:37;;;;;;;0.50;0.50;;;;;;;;;;5097784;28;20028;-68